Time;durP1;ratioP1;P1;durP2;ratioP2;P2;SDS_P1;SDS_P2;PMS_P1;PMS_P2;Temp;Humidity;BMP_temperature;BMP_pressure;BME280_temperature;BME280_humidity;BME280_pressure;Samples;Min_cycle;Max_cycle;Signal;HPM_P1;HPM_P2
2022/05/29 00:00:50;;;;;;;0.82;0.82;;;11.60;99.90;;;;;;5187430;28;20025;-79
2022/05/29 00:03:23;;;;;;;1.17;1.08;;;11.50;99.90;;;;;;5221563;28;20032;-78
2022/05/29 00:05:56;;;;;;;1.02;0.95;;;11.40;99.90;;;;;;5219510;28;20047;-77
2022/05/29 00:08:34;;;;;;;1.00;1.00;;;11.30;99.90;;;;;;5212593;28;20064;-77
2022/05/29 00:11:11;;;;;;;4.00;1.10;;;11.20;99.90;;;;;;5211342;28;20036;-76
2022/05/29 00:13:46;;;;;;;0.90;0.90;;;11.10;99.90;;;;;;5210370;28;20017;-76
2022/05/29 00:16:18;;;;;;;1.05;0.95;;;11.10;99.90;;;;;;5208864;28;20033;-78
2022/05/29 00:18:55;;;;;;;0.90;0.90;;;11.00;99.90;;;;;;5208909;28;20238;-77
2022/05/29 00:21:31;;;;;;;0.68;0.68;;;10.90;99.90;;;;;;5197864;28;20018;-77
2022/05/29 00:24:07;;;;;;;1.02;1.02;;;10.80;99.90;;;;;;5223090;28;20037;-78
2022/05/29 00:26:41;;;;;;;1.05;0.98;;;10.70;99.90;;;;;;5191525;28;20308;-78
2022/05/29 00:29:12;;;;;;;2.63;1.10;;;10.60;99.90;;;;;;5191316;28;20038;-78
2022/05/29 00:31:45;;;;;;;1.42;1.33;;;10.40;99.90;;;;;;5191653;28;20064;-77
2022/05/29 00:34:16;;;;;;;1.10;1.10;;;10.20;99.90;;;;;;5188765;28;20026;-76
2022/05/29 00:36:50;;;;;;;1.27;1.00;;;10.20;99.90;;;;;;5185454;28;20080;-78
2022/05/29 00:39:25;;;;;;;1.15;1.15;;;10.00;99.90;;;;;;5205938;28;20022;-77
2022/05/29 00:41:57;;;;;;;0.93;0.93;;;9.90;99.90;;;;;;5207955;28;20036;-78
2022/05/29 00:44:32;;;;;;;1.67;1.10;;;9.80;99.90;;;;;;5212649;28;21777;-79
2022/05/29 00:47:13;;;;;;;1.58;0.82;;;9.70;99.90;;;;;;5211775;28;20031;-79
2022/05/29 00:49:49;;;;;;;0.90;0.90;;;9.60;99.90;;;;;;5207495;28;20022;-78
2022/05/29 00:52:22;;;;;;;1.48;1.30;;;9.50;99.90;;;;;;5191062;28;20033;-78
2022/05/29 00:54:56;;;;;;;0.97;0.77;;;9.50;99.90;;;;;;5209526;28;20039;-79
2022/05/29 00:57:36;;;;;;;0.70;0.70;;;9.50;99.90;;;;;;5217259;28;20064;-78
2022/05/29 01:00:11;;;;;;;1.25;1.15;;;9.60;99.90;;;;;;5209711;28;20029;-78
2022/05/29 01:02:45;;;;;;;0.90;0.90;;;9.60;99.90;;;;;;5209733;28;20027;-78
2022/05/29 01:05:20;;;;;;;;;;;9.60;99.90;;;;;;5209897;28;20051;-77
2022/05/29 01:08:14;;;;;;;4.97;1.20;;;9.70;99.90;;;;;;5217277;28;20217;-78
2022/05/29 01:11:17;;;;;;;0.75;0.75;;;9.60;99.90;;;;;;5197161;28;20499;-80
2022/05/29 01:14:02;;;;;;;0.82;0.82;;;9.50;99.90;;;;;;5205059;28;20037;-78
2022/05/29 01:16:48;;;;;;;1.08;1.08;;;9.50;99.90;;;;;;5187925;28;20040;-78
2022/05/29 01:19:28;;;;;;;0.70;0.70;;;9.40;99.90;;;;;;5191062;28;20025;-79
2022/05/29 01:22:08;;;;;;;0.93;0.90;;;9.40;99.90;;;;;;5209050;28;20043;-76
2022/05/29 01:25:10;;;;;;;2.63;1.10;;;9.40;99.90;;;;;;5207476;28;20025;-77
2022/05/29 01:28:18;;;;;;;1.10;1.10;;;9.40;99.90;;;;;;5208864;28;20033;-75
2022/05/29 01:31:03;;;;;;;0.82;0.77;;;9.40;99.90;;;;;;5209003;28;20028;-77
2022/05/29 01:34:09;;;;;;;1.15;1.15;;;9.30;99.90;;;;;;5208888;28;20017;-76
2022/05/29 01:36:58;;;;;;;0.80;0.80;;;9.20;99.90;;;;;;5175193;28;20391;-77
2022/05/29 01:39:35;;;;;;;1.17;1.17;;;9.10;99.90;;;;;;5207188;28;20068;-79
2022/05/29 01:42:38;;;;;;;0.90;0.90;;;9.00;99.90;;;;;;5205804;28;20048;-79
2022/05/29 01:45:24;;;;;;;1.25;1.15;;;8.90;99.90;;;;;;5188047;28;20022;-77
2022/05/29 01:48:20;;;;;;;1.48;0.93;;;8.80;99.90;;;;;;5188831;28;20474;-78
2022/05/29 01:51:02;;;;;;;1.35;1.30;;;8.70;99.90;;;;;;5190638;28;20036;-80
2022/05/29 01:53:40;;;;;;;0.90;0.90;;;8.60;99.90;;;;;;5191356;28;20018;-77
2022/05/29 01:56:42;;;;;;;2.85;1.00;;;8.50;99.90;;;;;;5188826;28;20037;-78
2022/05/29 01:59:28;;;;;;;0.90;0.90;;;8.40;99.90;;;;;;5190511;28;20048;-77
2022/05/29 02:02:07;;;;;;;0.85;0.85;;;8.30;99.90;;;;;;5213815;28;20389;-81
2022/05/29 02:04:46;;;;;;;2.72;1.15;;;8.20;99.90;;;;;;5223376;28;20058;-78
2022/05/29 02:10:33;;;;;;;2.28;1.15;;;8.30;99.90;;;;;;5210443;28;20040;-79
2022/05/29 02:13:25;;;;;;;1.05;1.02;;;8.30;99.90;;;;;;5205079;28;20025;-77
2022/05/29 02:16:02;;;;;;;1.38;1.10;;;8.30;99.90;;;;;;5207644;28;20033;-76
2022/05/29 02:18:47;;;;;;;0.70;0.70;;;8.30;99.90;;;;;;5210466;28;20035;-76
2022/05/29 02:21:46;;;;;;;1.10;1.10;;;8.30;99.90;;;;;;5209898;28;20026;-80
2022/05/29 02:24:24;;;;;;;0.82;0.82;;;8.30;99.90;;;;;;5201372;28;20331;-77
2022/05/29 02:27:06;;;;;;;0.85;0.85;;;8.20;99.90;;;;;;5207048;28;20329;-78
2022/05/29 02:29:38;;;;;;;1.30;1.20;;;8.30;99.90;;;;;;5207887;28;20044;-77
2022/05/29 02:32:21;;;;;;;1.58;0.88;;;8.20;99.90;;;;;;5208358;28;20033;-79
2022/05/29 02:34:55;;;;;;;2.20;1.25;;;8.10;99.90;;;;;;5210118;28;20051;-78
2022/05/29 02:38:06;;;;;;;1.23;1.13;;;8.00;99.90;;;;;;5229218;28;20021;-79
2022/05/29 02:41:01;;;;;;;0.60;0.60;;;7.90;99.90;;;;;;5129830;28;20540;-77
2022/05/29 02:43:53;;;;;;;1.08;1.00;;;7.80;99.90;;;;;;5229041;28;20198;-76
2022/05/29 02:46:43;;;;;;;0.75;0.75;;;7.70;99.90;;;;;;5228516;28;20379;-76
2022/05/29 02:49:19;;;;;;;9.45;1.10;;;7.60;99.90;;;;;;5229469;28;20448;-77
2022/05/29 02:52:02;;;;;;;1.95;1.02;;;7.50;99.90;;;;;;5231307;28;20017;-78
2022/05/29 02:54:38;;;;;;;0.93;0.93;;;7.40;99.90;;;;;;5220026;28;20021;-75
2022/05/29 02:57:10;;;;;;;0.90;0.90;;;7.30;99.90;;;;;;5231815;28;20031;-79
2022/05/29 02:59:50;;;;;;;0.60;0.60;;;7.30;99.90;;;;;;5248070;28;20028;-78
2022/05/29 03:03:09;;;;;;;1.35;0.88;;;7.20;99.90;;;;;;5252945;28;20031;-75
2022/05/29 03:05:45;;;;;;;1.10;1.00;;;7.20;99.90;;;;;;5157558;28;20038;-76
2022/05/29 03:08:19;;;;;;;0.90;0.90;;;7.20;99.90;;;;;;5167383;28;20030;-76
2022/05/29 03:11:21;;;;;;;1.05;1.05;;;7.20;99.90;;;;;;5137317;28;20141;-76
2022/05/29 03:14:03;;;;;;;0.68;0.68;;;7.20;99.90;;;;;;5168273;28;20447;-79
2022/05/29 03:16:43;;;;;;;1.13;1.10;;;7.30;99.90;;;;;;5168268;28;20332;-76
2022/05/29 03:19:47;;;;;;;1.10;1.10;;;7.40;99.90;;;;;;5148720;28;20705;-78
2022/05/29 03:22:40;;;;;;;0.70;0.70;;;7.50;99.90;;;;;;5147513;28;20050;-77
2022/05/29 03:25:26;;;;;;;0.52;0.52;;;7.60;99.90;;;;;;5140125;28;20037;-77
2022/05/29 03:28:00;;;;;;;0.70;0.70;;;7.70;99.90;;;;;;5145743;28;20065;-80
2022/05/29 03:30:39;;;;;;;0.97;0.93;;;7.80;99.90;;;;;;5108104;28;20030;-77
2022/05/29 03:33:13;;;;;;;1.00;1.00;;;7.90;99.90;;;;;;5140451;28;20248;-78
2022/05/29 03:36:04;;;;;;;1.10;1.00;;;8.00;99.90;;;;;;5145932;28;20119;-81
2022/05/29 03:38:35;;;;;;;0.80;0.80;;;8.00;99.90;;;;;;5166612;28;20165;-74
2022/05/29 03:41:12;;;;;;;0.82;0.82;;;8.10;99.90;;;;;;5164766;28;20039;-75
2022/05/29 03:43:44;;;;;;;0.70;0.70;;;8.10;99.90;;;;;;5231305;28;20027;-77
2022/05/29 03:46:18;;;;;;;0.80;0.80;;;8.20;99.90;;;;;;5230319;28;20039;-75
2022/05/29 03:48:49;;;;;;;1.42;1.38;;;8.30;99.90;;;;;;5231060;28;20027;-77
2022/05/29 03:51:21;;;;;;;1.15;1.15;;;8.40;99.90;;;;;;5213862;28;20040;-78
2022/05/29 03:53:52;;;;;;;1.15;1.15;;;8.50;99.90;;;;;;5196912;28;20033;-76
2022/05/29 03:56:23;;;;;;;1.05;1.05;;;8.60;99.90;;;;;;5192253;28;20427;-79
2022/05/29 03:58:57;;;;;;;2.30;1.30;;;8.70;99.90;;;;;;5211028;28;20021;-78
2022/05/29 04:01:30;;;;;;;2.67;1.77;;;8.90;99.90;;;;;;5228434;28;20031;-76
2022/05/29 04:04:02;;;;;;;0.95;0.95;;;9.10;99.90;;;;;;5213359;28;20039;-77
2022/05/29 04:06:40;;;;;;;0.90;0.90;;;9.20;99.90;;;;;;5211207;28;20242;-78
2022/05/29 04:12:07;;;;;;;1.08;1.08;;;9.50;99.90;;;;;;5233427;28;20027;-79
2022/05/29 04:14:43;;;;;;;0.77;0.77;;;9.60;99.90;;;;;;5233097;28;20020;-80
2022/05/29 04:17:21;;;;;;;0.77;0.77;;;9.70;99.90;;;;;;5232578;28;20017;-77
2022/05/29 04:19:52;;;;;;;0.90;0.90;;;9.80;99.90;;;;;;5214665;28;20039;-79
2022/05/29 04:22:25;;;;;;;0.70;0.70;;;9.90;99.90;;;;;;5198986;28;20037;-77
2022/05/29 04:25:00;;;;;;;1.00;1.00;;;9.90;99.90;;;;;;5232281;28;20507;-79
2022/05/29 04:27:34;;;;;;;;;;;10.00;99.90;;;;;;5232885;28;20028;-78
2022/05/29 04:30:08;;;;;;;0.80;0.80;;;10.10;99.90;;;;;;5198222;28;19904;-78
2022/05/29 04:35:52;;;;;;;1.33;1.23;;;10.10;99.90;;;;;;5232638;28;20043;-80
2022/05/29 04:38:27;;;;;;;1.30;1.30;;;10.20;99.90;;;;;;5212032;28;20017;-78
2022/05/29 04:41:09;;;;;;;1.30;1.20;;;10.30;99.90;;;;;;5193249;28;20029;-79
2022/05/29 04:43:42;;;;;;;1.00;1.00;;;10.30;99.90;;;;;;5210894;28;20026;-77
2022/05/29 04:46:15;;;;;;;1.25;1.17;;;10.40;99.90;;;;;;5230937;28;20491;-78
2022/05/29 04:48:49;;;;;;;1.45;1.35;;;10.50;99.90;;;;;;5231467;28;20021;-77
2022/05/29 04:51:20;;;;;;;1.08;1.00;;;10.70;99.90;;;;;;5217639;28;20032;-79
2022/05/29 04:53:59;;;;;;;1.05;1.00;;;10.60;99.90;;;;;;5201896;28;20391;-78
2022/05/29 04:56:30;;;;;;;1.30;1.20;;;10.60;99.90;;;;;;5252645;28;20034;-81
2022/05/29 04:59:07;;;;;;;1.02;0.98;;;10.70;99.90;;;;;;5206991;28;20027;-77
2022/05/29 05:01:39;;;;;;;2.95;1.35;;;10.70;99.90;;;;;;5193506;28;20032;-76
2022/05/29 05:04:12;;;;;;;1.33;1.20;;;10.80;99.90;;;;;;5201612;28;20472;-77
2022/05/29 05:06:46;;;;;;;1.20;1.20;;;10.90;99.90;;;;;;5228839;28;20043;-78
2022/05/29 05:09:17;;;;;;;1.70;1.60;;;11.00;99.90;;;;;;5215058;28;20538;-79
2022/05/29 05:11:51;;;;;;;3.10;1.67;;;11.20;99.90;;;;;;5234109;28;20033;-80
2022/05/29 05:14:28;;;;;;;1.52;1.42;;;11.50;99.90;;;;;;5211347;28;20035;-78
2022/05/29 05:17:02;;;;;;;1.77;1.67;;;11.80;99.90;;;;;;5230591;28;20463;-78
2022/05/29 05:19:33;;;;;;;4.13;2.08;;;12.20;99.90;;;;;;5227396;28;20035;-78
2022/05/29 05:22:08;;;;;;;1.23;1.15;;;12.50;99.90;;;;;;5195828;28;20025;-80
2022/05/29 05:24:40;;;;;;;2.67;1.80;;;12.90;99.90;;;;;;5229699;28;20023;-80
2022/05/29 05:27:16;;;;;;;3.67;1.48;;;13.30;99.90;;;;;;5195922;28;20052;-79
2022/05/29 05:29:53;;;;;;;1.55;1.45;;;13.40;99.90;;;;;;5212999;28;20032;-79
2022/05/29 05:32:24;;;;;;;2.13;1.63;;;13.70;99.90;;;;;;5203832;28;20336;-80
2022/05/29 05:35:02;;;;;;;1.55;1.30;;;13.90;99.90;;;;;;5211469;28;20029;-80
2022/05/29 05:37:38;;;;;;;2.00;1.50;;;13.90;99.90;;;;;;5194836;28;20045;-80
2022/05/29 05:40:15;;;;;;;1.92;1.42;;;13.90;99.90;;;;;;5229781;28;20021;-79
2022/05/29 05:42:49;;;;;;;1.17;1.15;;;14.30;99.90;;;;;;5228832;28;20372;-80
2022/05/29 05:45:20;;;;;;;4.72;1.63;;;14.80;99.90;;;;;;5229678;28;20024;-80
2022/05/29 05:47:51;;;;;;;1.50;1.40;;;15.10;99.90;;;;;;5229489;28;20040;-80
2022/05/29 05:50:25;;;;;;;1.85;1.60;;;15.60;99.90;;;;;;5212281;28;20031;-79
2022/05/29 05:52:56;;;;;;;1.60;1.50;;;16.10;99.90;;;;;;5196010;28;20036;-79
2022/05/29 05:55:30;;;;;;;1.73;1.30;;;16.50;99.90;;;;;;5212232;28;20035;-79
2022/05/29 05:58:02;;;;;;;2.17;1.50;;;17.00;99.90;;;;;;5230246;28;20025;-78
2022/05/29 06:00:36;;;;;;;1.67;1.27;;;17.30;99.90;;;;;;5230432;28;20029;-80
2022/05/29 06:03:07;;;;;;;2.72;1.52;;;17.90;99.90;;;;;;5220993;28;20051;-79
2022/05/29 06:05:43;;;;;;;2.60;2.15;;;17.90;99.90;;;;;;5202081;28;20055;-81
2022/05/29 06:08:14;;;;;;;1.40;1.30;;;17.70;99.90;;;;;;5228738;28;20349;-80
2022/05/29 06:10:47;;;;;;;2.90;1.88;;;17.70;99.90;;;;;;5210471;28;20883;-79
2022/05/29 06:13:20;;;;;;;3.80;2.45;;;17.70;99.90;;;;;;5209306;28;20023;-79
2022/05/29 06:15:51;;;;;;;7.20;3.03;;;17.60;99.90;;;;;;5209197;28;20048;-79
2022/05/29 06:18:25;;;;;;;2.38;1.90;;;17.70;99.90;;;;;;5211164;28;20039;-78
2022/05/29 06:21:04;;;;;;;4.15;2.60;;;18.10;99.90;;;;;;5212567;28;20031;-79
2022/05/29 06:23:38;;;;;;;4.75;2.53;;;18.70;99.90;;;;;;5229065;28;20337;-79
2022/05/29 06:26:13;;;;;;;4.53;2.75;;;19.00;99.90;;;;;;5212412;28;20035;-78
2022/05/29 06:28:46;;;;;;;4.78;2.25;;;18.90;99.90;;;;;;5212163;28;20037;-79
2022/05/29 06:31:18;;;;;;;5.28;1.92;;;18.50;99.90;;;;;;5233568;28;20479;-82
2022/05/29 06:33:49;;;;;;;3.95;1.92;;;18.30;99.90;;;;;;5216100;28;20055;-79
2022/05/29 06:36:23;;;;;;;3.35;2.13;;;18.50;99.90;;;;;;5233512;28;20033;-79
2022/05/29 06:38:56;;;;;;;3.40;1.83;;;18.60;99.90;;;;;;5221411;28;20039;-76
2022/05/29 06:41:31;;;;;;;5.28;2.17;;;18.20;99.90;;;;;;5232382;28;20029;-79
2022/05/29 06:44:07;;;;;;;2.03;1.65;;;18.10;99.90;;;;;;5200394;28;20043;-77
2022/05/29 06:46:38;;;;;;;2.00;1.50;;;18.70;99.90;;;;;;5233502;28;20041;-78
2022/05/29 06:49:12;;;;;;;2.42;1.20;;;19.00;99.90;;;;;;5253777;28;20020;-77
2022/05/29 06:51:43;;;;;;;1.30;1.20;;;18.80;99.90;;;;;;5216569;28;20028;-77
2022/05/29 06:54:15;;;;;;;1.48;1.38;;;18.50;99.90;;;;;;5231427;28;20035;-80
2022/05/29 06:56:47;;;;;;;2.92;1.40;;;18.50;99.90;;;;;;5193484;28;20042;-79
2022/05/29 06:59:27;;;;;;;2.30;1.42;;;18.50;99.90;;;;;;5209361;28;20039;-79
2022/05/29 07:07:40;;;;;;;5.03;1.65;;;18.60;99.90;;;;;;5197621;28;20034;-79
2022/05/29 07:10:14;;;;;;;1.30;1.20;;;18.60;99.90;;;;;;5204916;28;20043;-79
2022/05/29 07:12:48;;;;;;;1.05;1.00;;;18.90;99.90;;;;;;5235473;28;20039;-79
2022/05/29 07:15:20;;;;;;;2.30;1.10;;;19.00;99.90;;;;;;5234035;28;20039;-80
2022/05/29 07:17:51;;;;;;;1.27;1.10;;;19.00;99.90;;;;;;5243921;28;20024;-80
2022/05/29 07:20:22;;;;;;;0.80;0.80;;;19.10;99.90;;;;;;5217613;28;20033;-82
2022/05/29 07:22:53;;;;;;;1.13;1.02;;;19.20;99.90;;;;;;5198573;28;20032;-78
2022/05/29 07:25:25;;;;;;;2.97;1.30;;;19.30;99.90;;;;;;5213992;28;20048;-81
2022/05/29 07:27:59;;;;;;;1.10;1.00;;;19.40;99.90;;;;;;5212063;28;20041;-81
2022/05/29 07:30:33;;;;;;;1.33;1.13;;;19.60;99.90;;;;;;5228314;28;20021;-80
2022/05/29 07:33:05;;;;;;;2.53;1.00;;;19.40;99.90;;;;;;5213920;28;20025;-79
2022/05/29 07:35:36;;;;;;;2.35;1.30;;;19.50;99.90;;;;;;5213107;28;20357;-79
2022/05/29 07:38:10;;;;;;;3.13;1.30;;;19.60;99.90;;;;;;5196394;28;20036;-80
2022/05/29 07:40:41;;;;;;;1.10;1.10;;;19.50;99.90;;;;;;5177514;28;20410;-79
2022/05/29 07:43:22;;;;;;;1.65;1.10;;;19.40;99.90;;;;;;5225177;28;20039;-79
2022/05/29 07:45:59;;;;;;;1.48;1.38;;;19.00;99.90;;;;;;5231468;28;20490;-80
2022/05/29 07:48:32;;;;;;;1.45;1.35;;;19.00;99.90;;;;;;5213090;28;20032;-79
2022/05/29 07:51:04;;;;;;;1.40;1.30;;;19.20;99.90;;;;;;5213754;28;20029;-80
2022/05/29 07:53:38;;;;;;;2.00;1.80;;;19.40;99.90;;;;;;5211919;28;20273;-80
2022/05/29 07:56:10;;;;;;;1.48;1.25;;;19.50;99.90;;;;;;5229142;28;20038;-79
2022/05/29 07:58:44;;;;;;;2.53;1.10;;;19.80;99.90;;;;;;5232049;28;20327;-80
2022/05/29 08:01:15;;;;;;;1.48;1.15;;;20.00;99.90;;;;;;5197081;28;20035;-80
2022/05/29 08:03:49;;;;;;;1.08;0.98;;;19.80;99.90;;;;;;5231297;28;20043;-80
2022/05/29 08:06:25;;;;;;;4.35;1.08;;;19.60;99.90;;;;;;5200887;28;20052;-79
2022/05/29 08:08:56;;;;;;;0.82;0.80;;;19.80;99.90;;;;;;5233112;28;20186;-78
2022/05/29 08:11:27;;;;;;;0.88;0.88;;;19.80;99.90;;;;;;5230803;28;20032;-81
2022/05/29 08:14:01;;;;;;;2.85;1.10;;;19.80;99.90;;;;;;5214543;28;20021;-79
2022/05/29 08:16:33;;;;;;;1.25;0.90;;;20.00;99.90;;;;;;5196826;28;20072;-80
2022/05/29 08:19:04;;;;;;;0.90;0.90;;;20.20;99.90;;;;;;5212898;28;20021;-79
2022/05/29 08:21:40;;;;;;;2.78;0.90;;;19.00;99.90;;;;;;5196157;28;20032;-79
2022/05/29 08:32:52;;;;;;;0.90;0.90;;;20.40;99.90;;;;;;5191458;28;20033;-80
2022/05/29 08:35:26;;;;;;;1.80;1.08;;;19.90;99.90;;;;;;5191763;28;20041;-80
2022/05/29 08:38:00;;;;;;;1.52;1.42;;;19.60;99.90;;;;;;5220515;28;20249;-78
2022/05/29 08:40:35;;;;;;;1.23;1.13;;;19.30;99.90;;;;;;5211803;28;20033;-79
2022/05/29 08:43:18;;;;;;;;;;;19.40;99.90;;;;;;5231773;28;20021;-81
2022/05/29 08:45:51;;;;;;;0.80;0.75;;;19.70;99.90;;;;;;5232615;28;19900;-81
2022/05/29 08:48:25;;;;;;;1.15;1.00;;;19.90;99.90;;;;;;5213412;28;20039;-80
2022/05/29 08:51:07;;;;;;;1.55;0.68;;;19.70;99.90;;;;;;5220166;28;20036;-79
2022/05/29 08:54:02;;;;;;;0.80;0.80;;;19.90;99.90;;;;;;5245165;28;20016;-79
2022/05/29 08:56:46;;;;;;;1.08;0.77;;;20.00;99.90;;;;;;5210557;28;20021;-80
2022/05/29 08:59:23;;;;;;;0.80;0.80;;;20.10;99.90;;;;;;5210459;28;20376;-78
2022/05/29 09:02:13;;;;;;;1.20;0.73;;;20.30;99.90;;;;;;5208934;28;20534;-80
2022/05/29 09:05:01;;;;;;;0.73;0.70;;;20.50;99.90;;;;;;5200286;28;20371;-79
2022/05/29 09:07:40;;;;;;;0.70;0.70;;;20.30;99.90;;;;;;5219524;28;20059;-80
2022/05/29 09:10:22;;;;;;;0.88;0.88;;;20.40;99.90;;;;;;5229987;28;20238;-80
2022/05/29 09:12:57;;;;;;;1.05;0.85;;;20.40;99.90;;;;;;5231416;28;20035;-80
2022/05/29 09:15:40;;;;;;;0.70;0.70;;;20.30;99.90;;;;;;5196691;28;20029;-81
2022/05/29 09:18:29;;;;;;;0.70;0.70;;;20.20;99.90;;;;;;5231296;28;20028;-80
2022/05/29 09:21:17;;;;;;;0.70;0.70;;;20.00;99.90;;;;;;5231141;28;20021;-79
2022/05/29 09:24:07;;;;;;;1.13;1.00;;;19.90;99.90;;;;;;5221930;28;20462;-79
2022/05/29 09:26:42;;;;;;;1.05;1.00;;;19.90;99.90;;;;;;5230561;28;20016;-79
2022/05/29 09:29:21;;;;;;;0.70;0.70;;;20.00;99.90;;;;;;5230751;28;20047;-79
2022/05/29 09:31:55;;;;;;;3.08;0.90;;;20.20;99.90;;;;;;5210204;28;20033;-79
2022/05/29 09:34:27;;;;;;;0.82;0.82;;;20.40;99.90;;;;;;5208281;28;20013;-78
2022/05/29 09:37:12;;;;;;;2.58;1.00;;;20.30;99.90;;;;;;5192241;28;20045;-78
2022/05/29 09:39:48;;;;;;;1.15;0.70;;;20.10;99.90;;;;;;5190517;28;20033;-79
2022/05/29 09:42:36;;;;;;;2.75;1.08;;;20.00;99.90;;;;;;5212743;28;20461;-79
2022/05/29 09:45:27;;;;;;;2.35;0.90;;;19.80;99.90;;;;;;5230030;28;20033;-79
2022/05/29 09:50:58;;;;;;;1.65;1.00;;;19.10;99.90;;;;;;5209945;28;20033;-78
2022/05/29 09:53:44;;;;;;;1.23;0.95;;;18.90;99.90;;;;;;5196962;28;20033;-80
2022/05/29 09:56:27;;;;;;;2.03;0.88;;;19.20;99.90;;;;;;5203710;28;20036;-80
2022/05/29 09:59:12;;;;;;;1.02;1.02;;;19.80;99.90;;;;;;5250356;28;20016;-79
2022/05/29 10:01:46;;;;;;;1.02;0.90;;;19.80;99.90;;;;;;5190740;28;20038;-79
2022/05/29 10:04:30;;;;;;;0.70;0.68;;;19.40;99.90;;;;;;5184409;28;20120;-79
2022/05/29 10:07:24;;;;;;;2.83;1.27;;;19.00;99.90;;;;;;5188580;28;20052;-78
2022/05/29 10:09:59;;;;;;;0.60;0.60;;;18.90;99.90;;;;;;5179548;28;20242;-79
2022/05/29 10:12:48;;;;;;;1.30;1.20;;;19.10;99.90;;;;;;5206179;28;20031;-79
2022/05/29 10:15:25;;;;;;;1.10;1.00;;;19.00;99.90;;;;;;5210722;28;20043;-79
2022/05/29 10:18:01;;;;;;;1.58;0.90;;;18.90;99.90;;;;;;5194727;28;20033;-80
2022/05/29 10:20:45;;;;;;;2.15;0.85;;;18.80;99.90;;;;;;5216308;28;20041;-81
2022/05/29 10:23:36;;;;;;;0.95;0.95;;;19.00;99.90;;;;;;5228277;28;20041;-79
2022/05/29 10:26:33;;;;;;;0.98;0.98;;;19.20;99.90;;;;;;5221235;28;20025;-79
2022/05/29 10:29:16;;;;;;;1.08;0.90;;;19.00;99.90;;;;;;5219150;28;20033;-80
2022/05/29 10:31:55;;;;;;;2.30;1.00;;;19.00;99.90;;;;;;5213426;28;20032;-78
2022/05/29 10:34:43;;;;;;;3.17;1.20;;;19.30;99.90;;;;;;5207641;28;20039;-79
2022/05/29 10:37:42;;;;;;;0.85;0.77;;;18.70;99.90;;;;;;5195425;28;20047;-78
2022/05/29 10:40:22;;;;;;;0.95;0.90;;;18.20;99.90;;;;;;5229245;28;20043;-79
2022/05/29 10:43:00;;;;;;;1.42;1.30;;;17.70;99.90;;;;;;5229193;28;20036;-80
2022/05/29 10:45:47;;;;;;;2.67;1.10;;;17.70;99.90;;;;;;5207758;28;20021;-77
2022/05/29 10:48:42;;;;;;;1.42;1.33;;;17.80;99.90;;;;;;5216827;28;20035;-77
2022/05/29 10:51:27;;;;;;;0.80;0.80;;;17.80;99.90;;;;;;5209830;28;20379;-78
2022/05/29 10:54:23;;;;;;;0.68;0.68;;;18.10;99.90;;;;;;5234027;28;20036;-81
2022/05/29 10:57:17;;;;;;;1.27;0.90;;;17.90;99.90;;;;;;5229781;28;20025;-78
2022/05/29 11:00:06;;;;;;;0.63;0.63;;;17.80;99.90;;;;;;5228679;28;20044;-79
2022/05/29 11:05:49;;;;;;;0.77;0.75;;;17.60;99.90;;;;;;5218278;28;20504;-79
2022/05/29 11:08:40;;;;;;;1.40;0.80;;;17.30;99.90;;;;;;5227953;28;20031;-79
2022/05/29 11:11:27;;;;;;;1.77;1.23;;;17.90;99.90;;;;;;5207640;28;20025;-80
2022/05/29 11:14:14;;;;;;;1.05;0.98;;;18.50;99.90;;;;;;5229686;28;20029;-80
2022/05/29 11:17:22;;;;;;;1.02;1.02;;;19.60;99.90;;;;;;5234662;28;20024;-81
2022/05/29 11:20:06;;;;;;;1.02;0.80;;;19.90;99.90;;;;;;5215587;28;20468;-79
2022/05/29 11:22:52;;;;;;;0.73;0.73;;;19.80;99.90;;;;;;5234020;28;20325;-79
2022/05/29 11:25:52;;;;;;;0.68;0.63;;;19.80;99.90;;;;;;5196391;28;20022;-77
2022/05/29 11:28:34;;;;;;;1.00;0.80;;;19.20;99.90;;;;;;5197163;28;20116;-77
2022/05/29 11:31:58;;;;;;;1.27;1.00;;;18.50;99.90;;;;;;5197109;28;20546;-80
2022/05/29 11:35:04;;;;;;;0.80;0.80;;;17.80;99.90;;;;;;5167975;28;20051;-77
2022/05/29 11:37:55;;;;;;;1.05;1.05;;;18.20;99.90;;;;;;5218239;28;20037;-78
2022/05/29 11:40:43;;;;;;;1.42;1.30;;;19.20;99.90;;;;;;5209371;28;20039;-79
2022/05/29 11:43:31;;;;;;;0.90;0.80;;;19.40;99.90;;;;;;5218479;28;20025;-77
2022/05/29 11:52:25;;;;;;;0.90;0.90;;;20.00;99.90;;;;;;5205185;28;20025;-81
2022/05/29 11:55:21;;;;;;;3.50;0.88;;;20.30;99.90;;;;;;5215807;28;20028;-80
2022/05/29 11:58:08;;;;;;;1.00;0.90;;;20.60;99.90;;;;;;5213877;28;20053;-79
2022/05/29 12:00:46;;;;;;;2.20;0.93;;;21.00;99.90;;;;;;5223455;28;20013;-78
2022/05/29 12:03:32;;;;;;;0.90;0.90;;;20.70;99.90;;;;;;5230312;28;20036;-76
2022/05/29 12:06:34;;;;;;;1.00;0.85;;;20.50;99.90;;;;;;5203164;28;20041;-76
2022/05/29 12:09:15;;;;;;;1.17;0.90;;;20.20;99.90;;;;;;5230680;28;20043;-76
2022/05/29 12:11:59;;;;;;;1.02;0.77;;;19.80;99.90;;;;;;5223150;28;20028;-78
2022/05/29 12:15:13;;;;;;;1.17;0.90;;;19.70;99.90;;;;;;5221578;28;20017;-78
2022/05/29 12:18:17;;;;;;;1.10;0.90;;;19.90;99.90;;;;;;5167809;28;20030;-75
2022/05/29 12:20:54;;;;;;;2.35;2.15;;;19.30;99.90;;;;;;5167727;28;20022;-79
2022/05/29 12:23:25;;;;;;;2.15;1.10;;;18.50;99.90;;;;;;5200112;28;20038;-80
2022/05/29 12:26:06;;;;;;;2.30;1.10;;;18.00;99.90;;;;;;5196186;28;20028;-78
2022/05/29 12:29:00;;;;;;;1.10;1.08;;;16.80;99.90;;;;;;5177742;28;20045;-76
2022/05/29 12:31:43;;;;;;;1.20;1.10;;;15.80;99.90;;;;;;5172193;28;20060;-77
2022/05/29 12:34:24;;;;;;;1.10;1.10;;;15.80;99.90;;;;;;5163977;28;20038;-81
2022/05/29 12:37:19;;;;;;;1.40;1.27;;;15.90;99.90;;;;;;5180185;28;20038;-76
2022/05/29 12:40:07;;;;;;;2.17;1.20;;;15.80;99.90;;;;;;5166879;28;20044;-76
2022/05/29 12:43:00;;;;;;;1.20;1.10;;;15.80;99.90;;;;;;5179916;28;20034;-77
2022/05/29 12:45:40;;;;;;;2.50;1.27;;;15.80;99.90;;;;;;5178880;28;20022;-75
2022/05/29 12:48:36;;;;;;;3.22;1.58;;;15.80;99.90;;;;;;5195570;28;20033;-79
2022/05/29 12:51:29;;;;;;;1.35;1.10;;;15.60;99.90;;;;;;5224338;28;20031;-79
2022/05/29 12:54:30;;;;;;;1.60;1.33;;;15.20;99.90;;;;;;5225881;28;20013;-75
2022/05/29 12:57:32;;;;;;;1.58;1.48;;;15.10;99.90;;;;;;5227906;28;20043;-74
2022/05/29 13:00:09;;;;;;;2.65;1.63;;;15.10;99.90;;;;;;5223502;28;20019;-76
2022/05/29 13:03:02;;;;;;;2.90;1.50;;;14.70;99.90;;;;;;5211957;28;20039;-76
2022/05/29 13:06:15;;;;;;;2.22;1.35;;;14.50;99.90;;;;;;5209866;28;20326;-76
2022/05/29 13:08:52;;;;;;;1.80;1.70;;;14.90;99.90;;;;;;5216144;28;20039;-76
2022/05/29 13:11:31;;;;;;;1.58;1.33;;;14.70;99.90;;;;;;5228417;28;20024;-74
2022/05/29 13:14:07;;;;;;;1.23;1.20;;;14.70;99.90;;;;;;5230673;28;20082;-76
2022/05/29 13:16:43;;;;;;;1.00;1.00;;;14.60;99.90;;;;;;5229963;28;20039;-77
2022/05/29 13:19:21;;;;;;;4.70;1.30;;;14.50;99.90;;;;;;5211390;28;20039;-74
2022/05/29 13:21:55;;;;;;;0.90;0.90;;;14.70;99.90;;;;;;5211370;28;20044;-75
2022/05/29 13:24:39;;;;;;;1.30;1.20;;;14.60;99.90;;;;;;5229250;28;20019;-78
2022/05/29 13:27:16;;;;;;;1.02;1.02;;;14.90;99.90;;;;;;5209673;28;20531;-78
2022/05/29 13:29:57;;;;;;;1.05;1.00;;;15.00;99.90;;;;;;5195555;28;20111;-77
2022/05/29 13:32:30;;;;;;;1.15;1.15;;;14.90;99.90;;;;;;5229667;28;20035;-77
2022/05/29 13:35:05;;;;;;;1.00;1.00;;;14.70;99.90;;;;;;5228762;28;20036;-77
2022/05/29 13:37:46;;;;;;;1.77;1.48;;;14.60;99.90;;;;;;5229896;28;20032;-76
2022/05/29 13:40:29;;;;;;;1.05;1.05;;;14.20;99.90;;;;;;5229737;28;20039;-76
2022/05/29 13:43:15;;;;;;;3.03;1.67;;;14.10;99.90;;;;;;5216529;28;20592;-75
2022/05/29 13:45:59;;;;;;;0.98;0.98;;;14.10;99.90;;;;;;5206756;28;20072;-77
2022/05/29 13:48:34;;;;;;;1.38;1.27;;;14.30;99.90;;;;;;5207603;28;20059;-76
2022/05/29 13:51:11;;;;;;;1.58;1.48;;;14.50;99.90;;;;;;5189527;28;20044;-79
2022/05/29 13:54:03;;;;;;;1.30;1.20;;;14.30;99.90;;;;;;5189529;28;20048;-77
2022/05/29 13:57:01;;;;;;;3.13;2.17;;;14.30;99.90;;;;;;5190879;28;20040;-77
2022/05/29 14:05:48;;;;;;;2.20;1.50;;;13.90;99.90;;;;;;5221523;28;20037;-77
2022/05/29 14:08:19;;;;;;;1.42;1.30;;;13.80;99.90;;;;;;5222472;28;20036;-76
2022/05/29 14:10:53;;;;;;;1.30;1.23;;;13.90;99.90;;;;;;5211174;28;20032;-79
2022/05/29 14:13:27;;;;;;;;;;;13.90;99.90;;;;;;5221479;28;20028;-78
2022/05/29 14:16:05;;;;;;;1.65;1.55;;;13.70;99.90;;;;;;5209239;28;19907;-79
2022/05/29 14:18:58;;;;;;;1.55;1.45;;;13.30;99.90;;;;;;5226976;28;20310;-77
2022/05/29 14:22:05;;;;;;;1.50;1.40;;;13.10;99.90;;;;;;5211099;28;20033;-77
2022/05/29 14:25:14;;;;;;;1.45;1.35;;;12.90;99.90;;;;;;5213366;28;20331;-78
2022/05/29 14:28:13;;;;;;;3.50;1.60;;;12.80;99.90;;;;;;5198572;28;20041;-77
2022/05/29 14:31:03;;;;;;;1.27;1.27;;;12.80;99.90;;;;;;5220614;28;20417;-76
2022/05/29 14:33:39;;;;;;;1.55;1.45;;;12.90;99.90;;;;;;5212352;28;20040;-76
2022/05/29 14:36:55;;;;;;;1.60;1.50;;;12.90;99.90;;;;;;5248542;28;20033;-77
2022/05/29 14:39:37;;;;;;;1.40;1.30;;;12.90;99.90;;;;;;5210045;28;20303;-75
2022/05/29 14:42:15;;;;;;;1.30;1.15;;;12.70;99.90;;;;;;5217871;28;20029;-75